sensor_id;sensor_type;location;lat;lon;timestamp;pressure;altitude;pressure_sealevel;temperature;humidity
56040;BME280;43937;41.366;2.072;2023-06-14T00:01:07;100118.09;;;22.30;63.88
56040;BME280;43937;41.366;2.072;2023-06-14T00:03:32;100112.41;;;22.20;63.42
56040;BME280;43937;41.366;2.072;2023-06-14T00:05:58;100098.13;;;22.11;62.88
56040;BME280;43937;41.366;2.072;2023-06-14T00:08:26;100120.28;;;22.28;62.54
56040;BME280;43937;41.366;2.072;2023-06-14T00:10:52;100115.25;;;22.25;62.61
56040;BME280;43937;41.366;2.072;2023-06-14T00:13:17;100121.03;;;22.24;62.49
56040;BME280;43937;41.366;2.072;2023-06-14T00:15:43;100128.19;;;22.20;63.25
56040;BME280;43937;41.366;2.072;2023-06-14T00:18:09;100124.66;;;22.24;63.18
56040;BME280;43937;41.366;2.072;2023-06-14T00:20:36;100118.00;;;22.25;62.79
56040;BME280;43937;41.366;2.072;2023-06-14T00:23:02;100114.09;;;22.21;63.65
56040;BME280;43937;41.366;2.072;2023-06-14T00:25:28;100126.56;;;22.24;63.56
56040;BME280;43937;41.366;2.072;2023-06-14T00:27:54;100132.19;;;22.07;64.29
56040;BME280;43937;41.366;2.072;2023-06-14T00:30:20;100124.94;;;22.06;64.09
56040;BME280;43937;41.366;2.072;2023-06-14T00:32:46;100129.09;;;22.25;64.01
56040;BME280;43937;41.366;2.072;2023-06-14T00:35:18;100131.25;;;22.18;64.97
56040;BME280;43937;41.366;2.072;2023-06-14T00:38:27;100135.69;;;22.19;65.49
56040;BME280;43937;41.366;2.072;2023-06-14T00:40:52;100128.06;;;22.09;66.29
56040;BME280;43937;41.366;2.072;2023-06-14T00:43:18;100105.81;;;21.82;67.44
56040;BME280;43937;41.366;2.072;2023-06-14T00:45:43;100125.25;;;21.87;67.71
56040;BME280;43937;41.366;2.072;2023-06-14T00:48:10;100109.84;;;21.75;68.64
56040;BME280;43937;41.366;2.072;2023-06-14T00:50:36;100106.34;;;21.62;69.03
56040;BME280;43937;41.366;2.072;2023-06-14T00:53:03;100108.41;;;21.72;68.61
56040;BME280;43937;41.366;2.072;2023-06-14T00:55:29;100084.28;;;21.67;68.46
56040;BME280;43937;41.366;2.072;2023-06-14T00:57:55;100099.59;;;21.75;67.29
56040;BME280;43937;41.366;2.072;2023-06-14T01:00:22;100103.28;;;21.81;66.17
56040;BME280;43937;41.366;2.072;2023-06-14T01:02:47;100117.66;;;22.00;65.61
56040;BME280;43937;41.366;2.072;2023-06-14T01:05:15;100065.91;;;21.61;65.43
56040;BME280;43937;41.366;2.072;2023-06-14T01:13:14;100112.19;;;21.83;66.20
56040;BME280;43937;41.366;2.072;2023-06-14T01:15:44;100122.34;;;21.77;65.98
56040;BME280;43937;41.366;2.072;2023-06-14T01:18:11;100125.75;;;21.84;65.87
56040;BME280;43937;41.366;2.072;2023-06-14T01:20:42;100094.53;;;21.67;66.27
56040;BME280;43937;41.366;2.072;2023-06-14T01:23:10;100111.78;;;21.74;65.91
56040;BME280;43937;41.366;2.072;2023-06-14T01:25:37;100115.69;;;21.78;66.18
56040;BME280;43937;41.366;2.072;2023-06-14T01:28:06;100121.25;;;21.78;66.21
56040;BME280;43937;41.366;2.072;2023-06-14T01:30:37;100123.25;;;21.83;66.27
56040;BME280;43937;41.366;2.072;2023-06-14T01:33:04;100124.59;;;21.80;65.74
56040;BME280;43937;41.366;2.072;2023-06-14T01:35:31;100117.50;;;21.67;66.33
56040;BME280;43937;41.366;2.072;2023-06-14T01:37:57;100123.84;;;21.85;65.56
56040;BME280;43937;41.366;2.072;2023-06-14T01:40:24;100123.00;;;21.84;65.95
56040;BME280;43937;41.366;2.072;2023-06-14T01:42:50;100119.91;;;21.81;65.73
56040;BME280;43937;41.366;2.072;2023-06-14T01:45:18;100125.00;;;21.67;66.12
56040;BME280;43937;41.366;2.072;2023-06-14T01:47:44;100125.81;;;21.67;66.26
56040;BME280;43937;41.366;2.072;2023-06-14T01:50:10;100116.91;;;21.65;65.93
56040;BME280;43937;41.366;2.072;2023-06-14T01:52:37;100122.72;;;21.64;66.28
56040;BME280;43937;41.366;2.072;2023-06-14T01:55:04;100122.66;;;21.59;66.74
56040;BME280;43937;41.366;2.072;2023-06-14T01:57:30;100135.59;;;21.75;66.49
56040;BME280;43937;41.366;2.072;2023-06-14T01:59:56;100120.13;;;21.57;66.80
56040;BME280;43937;41.366;2.072;2023-06-14T02:02:21;100135.16;;;21.61;66.95
56040;BME280;43937;41.366;2.072;2023-06-14T02:04:46;100135.91;;;21.57;66.82
56040;BME280;43937;41.366;2.072;2023-06-14T02:07:13;100129.53;;;21.56;67.39
56040;BME280;43937;41.366;2.072;2023-06-14T02:09:39;100137.09;;;21.61;66.95
56040;BME280;43937;41.366;2.072;2023-06-14T02:12:05;100117.63;;;21.56;66.45
56040;BME280;43937;41.366;2.072;2023-06-14T02:14:31;100137.50;;;21.53;67.08
56040;BME280;43937;41.366;2.072;2023-06-14T02:16:56;100125.31;;;21.54;67.06
56040;BME280;43937;41.366;2.072;2023-06-14T02:19:22;100119.38;;;21.62;66.71
56040;BME280;43937;41.366;2.072;2023-06-14T02:21:47;100129.84;;;21.60;66.71
56040;BME280;43937;41.366;2.072;2023-06-14T02:25:36;100137.41;;;21.47;67.52
56040;BME280;43937;41.366;2.072;2023-06-14T02:28:01;100138.09;;;21.38;68.09
56040;BME280;43937;41.366;2.072;2023-06-14T02:30:31;100146.19;;;21.39;68.32
56040;BME280;43937;41.366;2.072;2023-06-14T02:32:57;100119.78;;;21.20;68.86
56040;BME280;43937;41.366;2.072;2023-06-14T02:35:23;100143.69;;;21.26;69.46
56040;BME280;43937;41.366;2.072;2023-06-14T02:38:57;100129.19;;;21.19;70.07
56040;BME280;43937;41.366;2.072;2023-06-14T02:41:23;100132.72;;;21.31;70.13
56040;BME280;43937;41.366;2.072;2023-06-14T02:43:49;100124.31;;;21.26;70.48
56040;BME280;43937;41.366;2.072;2023-06-14T02:46:15;100123.66;;;21.19;70.69
56040;BME280;43937;41.366;2.072;2023-06-14T02:48:40;100123.41;;;21.20;70.53
56040;BME280;43937;41.366;2.072;2023-06-14T02:51:06;100114.59;;;21.23;70.13
56040;BME280;43937;41.366;2.072;2023-06-14T02:53:33;100127.78;;;21.33;70.35
56040;BME280;43937;41.366;2.072;2023-06-14T02:55:59;100119.38;;;21.28;69.74
56040;BME280;43937;41.366;2.072;2023-06-14T02:58:25;100129.75;;;21.21;69.90
56040;BME280;43937;41.366;2.072;2023-06-14T03:00:50;100132.03;;;21.24;69.91
56040;BME280;43937;41.366;2.072;2023-06-14T03:03:18;100126.94;;;21.16;70.33
56040;BME280;43937;41.366;2.072;2023-06-14T03:05:45;100149.13;;;21.21;70.23
56040;BME280;43937;41.366;2.072;2023-06-14T03:08:13;100150.00;;;21.21;70.41
56040;BME280;43937;41.366;2.072;2023-06-14T03:10:48;100155.69;;;21.15;70.26
56040;BME280;43937;41.366;2.072;2023-06-14T03:13:17;100151.91;;;21.21;69.55
56040;BME280;43937;41.366;2.072;2023-06-14T03:15:46;100138.75;;;21.11;69.71
56040;BME280;43937;41.366;2.072;2023-06-14T03:18:11;100148.16;;;21.10;69.77
56040;BME280;43937;41.366;2.072;2023-06-14T03:20:40;100153.00;;;21.20;69.24
56040;BME280;43937;41.366;2.072;2023-06-14T03:23:06;100149.81;;;21.28;68.99
56040;BME280;43937;41.366;2.072;2023-06-14T03:25:32;100155.00;;;21.36;68.45
56040;BME280;43937;41.366;2.072;2023-06-14T03:28:04;100160.06;;;21.27;68.54
56040;BME280;43937;41.366;2.072;2023-06-14T03:30:31;100174.47;;;21.30;68.66
56040;BME280;43937;41.366;2.072;2023-06-14T03:32:57;100165.59;;;21.27;68.47
56040;BME280;43937;41.366;2.072;2023-06-14T03:35:51;100145.09;;;21.12;68.95
56040;BME280;43937;41.366;2.072;2023-06-14T03:38:17;100159.53;;;21.14;68.23
56040;BME280;43937;41.366;2.072;2023-06-14T03:40:42;100167.72;;;21.37;66.69
56040;BME280;43937;41.366;2.072;2023-06-14T03:43:08;100170.66;;;21.47;66.04
56040;BME280;43937;41.366;2.072;2023-06-14T03:45:33;100174.53;;;21.46;65.70
56040;BME280;43937;41.366;2.072;2023-06-14T03:47:59;100179.97;;;21.41;66.04
56040;BME280;43937;41.366;2.072;2023-06-14T03:50:26;100176.88;;;21.38;66.42
56040;BME280;43937;41.366;2.072;2023-06-14T03:52:52;100169.31;;;21.33;67.47
56040;BME280;43937;41.366;2.072;2023-06-14T03:55:18;100174.56;;;21.35;67.84
56040;BME280;43937;41.366;2.072;2023-06-14T03:57:44;100156.03;;;21.18;68.93
56040;BME280;43937;41.366;2.072;2023-06-14T04:00:10;100168.59;;;21.26;70.06
56040;BME280;43937;41.366;2.072;2023-06-14T04:02:37;100181.94;;;21.29;70.48
56040;BME280;43937;41.366;2.072;2023-06-14T04:05:03;100194.31;;;21.38;70.27
56040;BME280;43937;41.366;2.072;2023-06-14T04:07:29;100189.47;;;21.45;69.81
56040;BME280;43937;41.366;2.072;2023-06-14T04:09:58;100180.06;;;21.46;70.20
56040;BME280;43937;41.366;2.072;2023-06-14T04:12:23;100182.41;;;21.55;69.92
56040;BME280;43937;41.366;2.072;2023-06-14T04:14:49;100175.13;;;21.48;69.86
56040;BME280;43937;41.366;2.072;2023-06-14T04:18:57;100188.59;;;21.62;69.55
56040;BME280;43937;41.366;2.072;2023-06-14T04:21:23;100184.63;;;21.75;69.22
56040;BME280;43937;41.366;2.072;2023-06-14T04:23:48;100182.66;;;21.70;69.04
56040;BME280;43937;41.366;2.072;2023-06-14T04:26:18;100159.75;;;21.58;69.03
56040;BME280;43937;41.366;2.072;2023-06-14T04:28:45;100179.88;;;21.70;68.71
56040;BME280;43937;41.366;2.072;2023-06-14T04:31:10;100175.50;;;21.57;68.71
56040;BME280;43937;41.366;2.072;2023-06-14T04:33:36;100180.03;;;21.63;68.77
56040;BME280;43937;41.366;2.072;2023-06-14T04:36:09;100180.38;;;21.67;68.60
56040;BME280;43937;41.366;2.072;2023-06-14T04:38:37;100202.78;;;21.82;68.64
56040;BME280;43937;41.366;2.072;2023-06-14T04:41:02;100194.97;;;21.79;68.29
56040;BME280;43937;41.366;2.072;2023-06-14T04:43:28;100204.53;;;21.88;68.04
56040;BME280;43937;41.366;2.072;2023-06-14T04:45:53;100214.13;;;22.03;67.26
56040;BME280;43937;41.366;2.072;2023-06-14T04:48:21;100202.16;;;21.97;67.03
56040;BME280;43937;41.366;2.072;2023-06-14T04:50:47;100215.53;;;21.83;68.14
56040;BME280;43937;41.366;2.072;2023-06-14T04:53:13;100219.34;;;21.99;67.57
56040;BME280;43937;41.366;2.072;2023-06-14T04:55:55;100219.63;;;21.98;67.82
56040;BME280;43937;41.366;2.072;2023-06-14T04:58:21;100220.13;;;21.94;67.79
56040;BME280;43937;41.366;2.072;2023-06-14T05:00:46;100228.84;;;22.03;67.21
56040;BME280;43937;41.366;2.072;2023-06-14T05:03:12;100228.97;;;21.91;67.30
56040;BME280;43937;41.366;2.072;2023-06-14T05:05:41;100228.91;;;22.08;66.86
56040;BME280;43937;41.366;2.072;2023-06-14T05:08:07;100240.13;;;22.35;65.71
56040;BME280;43937;41.366;2.072;2023-06-14T05:10:33;100234.78;;;22.51;64.89
56040;BME280;43937;41.366;2.072;2023-06-14T05:15:11;100232.13;;;22.83;63.11
56040;BME280;43937;41.366;2.072;2023-06-14T05:17:37;100236.84;;;22.82;62.42
56040;BME280;43937;41.366;2.072;2023-06-14T05:20:03;100233.63;;;22.91;62.22
56040;BME280;43937;41.366;2.072;2023-06-14T05:22:29;100228.03;;;23.13;60.96
56040;BME280;43937;41.366;2.072;2023-06-14T05:24:55;100227.56;;;23.21;60.93
56040;BME280;43937;41.366;2.072;2023-06-14T05:27:20;100237.47;;;23.44;60.54
56040;BME280;43937;41.366;2.072;2023-06-14T05:31:25;100233.38;;;23.79;59.19
56040;BME280;43937;41.366;2.072;2023-06-14T05:33:51;100234.50;;;23.83;58.22
56040;BME280;43937;41.366;2.072;2023-06-14T05:36:16;100240.50;;;24.07;57.75
56040;BME280;43937;41.366;2.072;2023-06-14T05:38:42;100232.69;;;24.04;57.29
56040;BME280;43937;41.366;2.072;2023-06-14T05:41:07;100238.44;;;24.34;56.10
56040;BME280;43937;41.366;2.072;2023-06-14T05:43:32;100244.44;;;24.68;55.16
56040;BME280;43937;41.366;2.072;2023-06-14T05:45:58;100240.06;;;24.93;54.19
56040;BME280;43937;41.366;2.072;2023-06-14T05:48:23;100253.63;;;25.93;52.08
56040;BME280;43937;41.366;2.072;2023-06-14T05:50:49;100265.41;;;30.83;40.22
56040;BME280;43937;41.366;2.072;2023-06-14T05:53:14;100266.66;;;29.70;41.07
56040;BME280;43937;41.366;2.072;2023-06-14T05:55:40;100266.91;;;27.57;45.81
56040;BME280;43937;41.366;2.072;2023-06-14T05:58:05;100268.31;;;27.05;46.52
56040;BME280;43937;41.366;2.072;2023-06-14T06:00:31;100261.84;;;26.44;47.83
56040;BME280;43937;41.366;2.072;2023-06-14T06:02:57;100257.75;;;26.21;48.18
56040;BME280;43937;41.366;2.072;2023-06-14T06:06:05;100265.31;;;25.95;48.83
56040;BME280;43937;41.366;2.072;2023-06-14T06:08:30;100265.00;;;26.02;48.67
56040;BME280;43937;41.366;2.072;2023-06-14T06:10:56;100273.13;;;25.88;48.57
56040;BME280;43937;41.366;2.072;2023-06-14T06:13:22;100267.53;;;25.83;48.68
56040;BME280;43937;41.366;2.072;2023-06-14T06:15:47;100275.03;;;25.77;48.90
56040;BME280;43937;41.366;2.072;2023-06-14T06:18:13;100264.41;;;25.18;50.64
56040;BME280;43937;41.366;2.072;2023-06-14T06:20:38;100264.88;;;25.05;51.33
56040;BME280;43937;41.366;2.072;2023-06-14T06:23:04;100274.91;;;25.01;51.45
56040;BME280;43937;41.366;2.072;2023-06-14T06:25:30;100266.28;;;25.02;51.46
56040;BME280;43937;41.366;2.072;2023-06-14T06:27:57;100276.50;;;24.76;51.79
56040;BME280;43937;41.366;2.072;2023-06-14T06:30:23;100284.63;;;24.88;51.25
56040;BME280;43937;41.366;2.072;2023-06-14T06:32:48;100289.19;;;25.15;50.62
56040;BME280;43937;41.366;2.072;2023-06-14T06:35:14;100287.88;;;25.78;49.40
56040;BME280;43937;41.366;2.072;2023-06-14T06:37:41;100295.91;;;26.41;47.56
56040;BME280;43937;41.366;2.072;2023-06-14T06:40:07;100285.94;;;25.94;48.43
56040;BME280;43937;41.366;2.072;2023-06-14T06:42:34;100290.69;;;26.04;48.04
56040;BME280;43937;41.366;2.072;2023-06-14T06:45:00;100293.75;;;25.92;49.14
56040;BME280;43937;41.366;2.072;2023-06-14T06:47:25;100293.72;;;27.18;46.31
56040;BME280;43937;41.366;2.072;2023-06-14T06:49:51;100299.19;;;32.85;35.60
56040;BME280;43937;41.366;2.072;2023-06-14T06:52:16;100297.91;;;29.63;39.90
56040;BME280;43937;41.366;2.072;2023-06-14T06:54:42;100310.50;;;27.58;44.65
56040;BME280;43937;41.366;2.072;2023-06-14T06:57:11;100307.59;;;27.34;44.94
56040;BME280;43937;41.366;2.072;2023-06-14T06:59:37;100308.47;;;29.09;42.09
56040;BME280;43937;41.366;2.072;2023-06-14T07:02:03;100304.47;;;28.67;42.62
56040;BME280;43937;41.366;2.072;2023-06-14T07:05:26;100283.72;;;27.47;44.39
56040;BME280;43937;41.366;2.072;2023-06-14T07:07:52;100316.88;;;27.19;45.23
56040;BME280;43937;41.366;2.072;2023-06-14T07:10:18;100324.00;;;26.86;46.41
56040;BME280;43937;41.366;2.072;2023-06-14T07:12:44;100322.16;;;26.40;47.34
56040;BME280;43937;41.366;2.072;2023-06-14T07:15:10;100325.50;;;26.63;47.25
56040;BME280;43937;41.366;2.072;2023-06-14T07:17:36;100331.22;;;27.02;46.32
56040;BME280;43937;41.366;2.072;2023-06-14T07:20:03;100337.50;;;27.28;45.42
56040;BME280;43937;41.366;2.072;2023-06-14T07:22:33;100327.88;;;27.94;44.93
56040;BME280;43937;41.366;2.072;2023-06-14T07:25:01;100337.13;;;31.94;37.01
56040;BME280;43937;41.366;2.072;2023-06-14T07:27:30;100342.31;;;31.00;37.66
56040;BME280;43937;41.366;2.072;2023-06-14T07:29:55;100342.63;;;30.25;39.47
56040;BME280;43937;41.366;2.072;2023-06-14T07:32:21;100341.50;;;28.64;42.20
56040;BME280;43937;41.366;2.072;2023-06-14T07:36:46;100332.47;;;27.75;44.63
56040;BME280;43937;41.366;2.072;2023-06-14T07:39:15;100300.56;;;27.42;44.99
56040;BME280;43937;41.366;2.072;2023-06-14T07:41:41;100329.28;;;27.92;44.63
56040;BME280;43937;41.366;2.072;2023-06-14T08:20:21;100368.84;;;35.61;29.80
56040;BME280;43937;41.366;2.072;2023-06-14T08:22:47;100358.34;;;39.00;25.30
56040;BME280;43937;41.366;2.072;2023-06-14T08:25:13;100365.66;;;40.65;23.16
56040;BME280;43937;41.366;2.072;2023-06-14T08:27:39;100362.97;;;41.79;21.98
56040;BME280;43937;41.366;2.072;2023-06-14T08:30:05;100353.16;;;37.33;26.27
56040;BME280;43937;41.366;2.072;2023-06-14T08:32:32;100356.34;;;37.44;26.29
56040;BME280;43937;41.366;2.072;2023-06-14T08:34:58;100360.69;;;39.81;23.25
56040;BME280;43937;41.366;2.072;2023-06-14T08:37:26;100359.78;;;38.18;25.42
56040;BME280;43937;41.366;2.072;2023-06-14T08:39:52;100357.47;;;36.57;27.02
56040;BME280;43937;41.366;2.072;2023-06-14T08:42:19;100353.53;;;36.37;27.51
56040;BME280;43937;41.366;2.072;2023-06-14T08:44:46;100355.13;;;36.59;27.43
56040;BME280;43937;41.366;2.072;2023-06-14T08:47:12;100363.75;;;34.86;29.82
56040;BME280;43937;41.366;2.072;2023-06-14T08:49:40;100356.06;;;35.76;28.42
56040;BME280;43937;41.366;2.072;2023-06-14T08:52:08;100356.53;;;36.53;27.80
56040;BME280;43937;41.366;2.072;2023-06-14T08:54:36;100360.56;;;38.03;25.58
56040;BME280;43937;41.366;2.072;2023-06-14T08:57:12;100366.97;;;38.00;26.11
56040;BME280;43937;41.366;2.072;2023-06-14T08:59:47;100368.75;;;36.33;28.06
56040;BME280;43937;41.366;2.072;2023-06-14T09:02:15;100354.56;;;34.60;29.61
56040;BME280;43937;41.366;2.072;2023-06-14T09:04:43;100363.69;;;35.84;28.16
56040;BME280;43937;41.366;2.072;2023-06-14T09:07:10;100353.09;;;35.93;28.78
56040;BME280;43937;41.366;2.072;2023-06-14T09:09:38;100361.50;;;36.02;28.96
56040;BME280;43937;41.366;2.072;2023-06-14T09:12:07;100341.72;;;35.30;29.39
56040;BME280;43937;41.366;2.072;2023-06-14T09:14:35;100342.59;;;34.93;29.49
56040;BME280;43937;41.366;2.072;2023-06-14T09:17:04;100348.59;;;35.50;29.02
56040;BME280;43937;41.366;2.072;2023-06-14T09:19:29;100348.69;;;35.63;28.34
56040;BME280;43937;41.366;2.072;2023-06-14T09:21:54;100344.28;;;35.23;29.47
56040;BME280;43937;41.366;2.072;2023-06-14T09:24:20;100359.34;;;35.36;28.89
56040;BME280;43937;41.366;2.072;2023-06-14T09:26:51;100349.34;;;35.09;28.55
56040;BME280;43937;41.366;2.072;2023-06-14T09:29:17;100363.19;;;34.63;29.83
56040;BME280;43937;41.366;2.072;2023-06-14T09:31:46;100358.09;;;33.61;31.10
56040;BME280;43937;41.366;2.072;2023-06-14T09:34:11;100363.75;;;34.31;30.14
56040;BME280;43937;41.366;2.072;2023-06-14T09:36:39;100349.81;;;34.26;30.56
56040;BME280;43937;41.366;2.072;2023-06-14T09:39:05;100357.13;;;34.74;29.76
56040;BME280;43937;41.366;2.072;2023-06-14T09:44:01;100362.16;;;35.66;28.22
56040;BME280;43937;41.366;2.072;2023-06-14T09:46:28;100372.59;;;35.23;28.98
56040;BME280;43937;41.366;2.072;2023-06-14T09:50:50;100360.59;;;35.47;28.75
56040;BME280;43937;41.366;2.072;2023-06-14T09:53:16;100371.16;;;35.38;28.69
56040;BME280;43937;41.366;2.072;2023-06-14T09:55:47;100380.84;;;35.07;29.49
56040;BME280;43937;41.366;2.072;2023-06-14T09:58:19;100367.53;;;34.99;29.27
56040;BME280;43937;41.366;2.072;2023-06-14T10:00:47;100366.25;;;34.88;29.16
56040;BME280;43937;41.366;2.072;2023-06-14T10:03:24;100363.91;;;35.49;28.30
56040;BME280;43937;41.366;2.072;2023-06-14T10:05:51;100368.53;;;35.63;28.38
56040;BME280;43937;41.366;2.072;2023-06-14T10:08:19;100362.50;;;35.85;27.81
56040;BME280;43937;41.366;2.072;2023-06-14T10:10:45;100377.91;;;35.96;28.18
56040;BME280;43937;41.366;2.072;2023-06-14T10:13:12;100373.88;;;35.97;27.96
56040;BME280;43937;41.366;2.072;2023-06-14T10:15:51;100374.94;;;35.72;28.61
56040;BME280;43937;41.366;2.072;2023-06-14T10:18:24;100374.31;;;36.08;28.17
56040;BME280;43937;41.366;2.072;2023-06-14T10:21:54;100379.25;;;36.32;27.57
56040;BME280;43937;41.366;2.072;2023-06-14T10:23:52;100380.19;;;36.03;28.10
56040;BME280;43937;41.366;2.072;2023-06-14T10:26:22;100369.84;;;36.07;27.41
56040;BME280;43937;41.366;2.072;2023-06-14T10:29:08;100384.31;;;35.85;28.22
56040;BME280;43937;41.366;2.072;2023-06-14T10:31:42;100363.47;;;35.18;29.00
56040;BME280;43937;41.366;2.072;2023-06-14T10:34:08;100359.56;;;34.93;29.58
56040;BME280;43937;41.366;2.072;2023-06-14T10:36:33;100368.94;;;35.23;30.41
56040;BME280;43937;41.366;2.072;2023-06-14T10:39:16;100370.16;;;35.34;29.77
56040;BME280;43937;41.366;2.072;2023-06-14T10:41:51;100365.75;;;35.75;29.33
56040;BME280;43937;41.366;2.072;2023-06-14T10:49:53;100370.63;;;36.74;27.63
56040;BME280;43937;41.366;2.072;2023-06-14T10:52:27;100361.78;;;37.12;26.89
56040;BME280;43937;41.366;2.072;2023-06-14T10:55:14;100375.41;;;37.56;26.67
56040;BME280;43937;41.366;2.072;2023-06-14T11:00:12;100385.88;;;36.82;27.30
56040;BME280;43937;41.366;2.072;2023-06-14T11:03:04;100380.31;;;36.85;27.81
56040;BME280;43937;41.366;2.072;2023-06-14T11:05:49;100392.25;;;36.91;27.44
56040;BME280;43937;41.366;2.072;2023-06-14T11:11:06;100382.03;;;36.20;27.30
56040;BME280;43937;41.366;2.072;2023-06-14T11:13:32;100382.88;;;35.99;28.10
56040;BME280;43937;41.366;2.072;2023-06-14T11:15:57;100388.59;;;36.90;27.01
56040;BME280;43937;41.366;2.072;2023-06-14T11:18:23;100380.81;;;37.61;25.92
56040;BME280;43937;41.366;2.072;2023-06-14T11:20:54;100380.56;;;36.68;27.51
56040;BME280;43937;41.366;2.072;2023-06-14T11:23:21;100384.94;;;35.90;28.18
56040;BME280;43937;41.366;2.072;2023-06-14T11:25:53;100400.22;;;35.98;27.88
56040;BME280;43937;41.366;2.072;2023-06-14T11:28:18;100388.09;;;36.76;27.33
56040;BME280;43937;41.366;2.072;2023-06-14T11:30:48;100377.72;;;36.68;26.84
56040;BME280;43937;41.366;2.072;2023-06-14T11:33:18;100392.75;;;36.93;27.00
56040;BME280;43937;41.366;2.072;2023-06-14T11:35:46;100403.06;;;35.77;28.51
56040;BME280;43937;41.366;2.072;2023-06-14T11:38:12;100402.13;;;35.85;28.16
56040;BME280;43937;41.366;2.072;2023-06-14T11:40:38;100411.06;;;36.17;27.59
56040;BME280;43937;41.366;2.072;2023-06-14T11:43:04;100401.97;;;35.31;28.79
56040;BME280;43937;41.366;2.072;2023-06-14T11:45:30;100407.94;;;35.38;28.64
56040;BME280;43937;41.366;2.072;2023-06-14T11:47:57;100395.06;;;34.73;29.95
56040;BME280;43937;41.366;2.072;2023-06-14T11:50:24;100394.25;;;35.19;29.43
56040;BME280;43937;41.366;2.072;2023-06-14T11:52:57;100402.34;;;35.29;29.13
56040;BME280;43937;41.366;2.072;2023-06-14T11:55:25;100402.09;;;34.58;29.94
56040;BME280;43937;41.366;2.072;2023-06-14T11:57:53;100401.63;;;34.47;30.23
56040;BME280;43937;41.366;2.072;2023-06-14T12:00:19;100399.47;;;34.27;31.41
56040;BME280;43937;41.366;2.072;2023-06-14T12:02:56;100392.00;;;33.79;32.29
56040;BME280;43937;41.366;2.072;2023-06-14T12:05:22;100393.28;;;33.55;32.50
56040;BME280;43937;41.366;2.072;2023-06-14T12:07:48;100383.63;;;33.47;33.31
56040;BME280;43937;41.366;2.072;2023-06-14T12:10:14;100390.50;;;33.72;32.74
56040;BME280;43937;41.366;2.072;2023-06-14T12:12:40;100390.88;;;34.06;32.63
56040;BME280;43937;41.366;2.072;2023-06-14T12:15:07;100383.78;;;34.64;31.88
56040;BME280;43937;41.366;2.072;2023-06-14T12:17:34;100381.50;;;34.57;31.60
56040;BME280;43937;41.366;2.072;2023-06-14T12:20:05;100390.69;;;34.93;31.98
56040;BME280;43937;41.366;2.072;2023-06-14T12:22:32;100392.44;;;35.15;31.07
56040;BME280;43937;41.366;2.072;2023-06-14T12:24:57;100392.44;;;35.15;30.86
56040;BME280;43937;41.366;2.072;2023-06-14T12:27:22;100380.84;;;34.99;30.68
56040;BME280;43937;41.366;2.072;2023-06-14T12:29:58;100387.56;;;34.77;31.33
56040;BME280;43937;41.366;2.072;2023-06-14T12:32:24;100379.41;;;34.84;30.62
56040;BME280;43937;41.366;2.072;2023-06-14T12:34:49;100385.41;;;35.21;30.27
56040;BME280;43937;41.366;2.072;2023-06-14T12:37:15;100378.84;;;34.99;30.21
56040;BME280;43937;41.366;2.072;2023-06-14T12:39:41;100386.56;;;34.81;30.50
56040;BME280;43937;41.366;2.072;2023-06-14T12:42:07;100376.56;;;34.84;30.93
56040;BME280;43937;41.366;2.072;2023-06-14T12:44:32;100363.25;;;34.29;31.53
56040;BME280;43937;41.366;2.072;2023-06-14T12:47:01;100376.19;;;34.38;31.09
56040;BME280;43937;41.366;2.072;2023-06-14T12:49:26;100372.38;;;34.34;31.11
56040;BME280;43937;41.366;2.072;2023-06-14T12:51:51;100367.50;;;33.30;32.35
56040;BME280;43937;41.366;2.072;2023-06-14T12:54:17;100366.22;;;32.57;33.06
56040;BME280;43937;41.366;2.072;2023-06-14T12:56:42;100378.81;;;32.37;34.19
56040;BME280;43937;41.366;2.072;2023-06-14T12:59:10;100372.44;;;32.45;33.35
56040;BME280;43937;41.366;2.072;2023-06-14T13:01:38;100369.06;;;32.12;33.40
56040;BME280;43937;41.366;2.072;2023-06-14T13:04:03;100374.69;;;32.12;33.96
56040;BME280;43937;41.366;2.072;2023-06-14T13:06:29;100368.16;;;32.03;34.07
56040;BME280;43937;41.366;2.072;2023-06-14T13:08:56;100376.59;;;32.48;33.21
56040;BME280;43937;41.366;2.072;2023-06-14T13:11:23;100359.00;;;33.22;32.13
56040;BME280;43937;41.366;2.072;2023-06-14T13:13:48;100368.06;;;33.59;31.07
56040;BME280;43937;41.366;2.072;2023-06-14T13:16:13;100360.63;;;34.06;31.84
56040;BME280;43937;41.366;2.072;2023-06-14T13:18:39;100359.47;;;34.07;30.98
56040;BME280;43937;41.366;2.072;2023-06-14T13:21:05;100361.59;;;34.19;31.74
56040;BME280;43937;41.366;2.072;2023-06-14T13:23:30;100349.34;;;34.71;30.59
56040;BME280;43937;41.366;2.072;2023-06-14T13:25:56;100360.22;;;34.98;30.46
56040;BME280;43937;41.366;2.072;2023-06-14T13:28:21;100357.38;;;34.98;30.42
56040;BME280;43937;41.366;2.072;2023-06-14T13:30:47;100365.50;;;35.08;30.98
56040;BME280;43937;41.366;2.072;2023-06-14T13:33:13;100364.16;;;35.15;29.76
56040;BME280;43937;41.366;2.072;2023-06-14T13:35:39;100355.38;;;34.43;30.85
56040;BME280;43937;41.366;2.072;2023-06-14T13:38:04;100348.19;;;34.07;32.45
56040;BME280;43937;41.366;2.072;2023-06-14T13:40:30;100359.22;;;34.47;32.17
56040;BME280;43937;41.366;2.072;2023-06-14T13:42:55;100359.63;;;34.19;31.70
56040;BME280;43937;41.366;2.072;2023-06-14T13:45:21;100349.31;;;33.89;31.08
56040;BME280;43937;41.366;2.072;2023-06-14T13:47:46;100347.00;;;34.17;31.11
56040;BME280;43937;41.366;2.072;2023-06-14T13:50:13;100362.53;;;34.49;30.31
56040;BME280;43937;41.366;2.072;2023-06-14T13:52:39;100374.56;;;34.84;30.27
56040;BME280;43937;41.366;2.072;2023-06-14T13:55:05;100356.38;;;34.94;30.18
56040;BME280;43937;41.366;2.072;2023-06-14T13:57:31;100354.31;;;34.74;29.98
56040;BME280;43937;41.366;2.072;2023-06-14T13:59:57;100366.63;;;34.78;30.05